Time;durP1;ratioP1;P1;durP2;ratioP2;P2;SDS_P1;SDS_P2;PMS_P1;PMS_P2;Temp;Humidity;BMP_temperature;BMP_pressure;BME280_temperature;BME280_humidity;BME280_pressure;Samples;Min_cycle;Max_cycle;Signal;HPM_P1;HPM_P2
2022/06/04 00:00:10;;;;;;;13.68;4.57;;;;;;;;;;5054480;28;20467;-76
2022/06/04 00:02:43;;;;;;;10.82;4.47;;;;;;;;;;5054355;28;20037;-75
2022/06/04 00:05:10;;;;;;;8.18;4.35;;;;;;;;;;5052442;28;20021;-76
2022/06/04 00:07:37;;;;;;;8.52;3.85;;;;;;;;;;5052389;28;20021;-76
2022/06/04 00:15:37;;;;;;;10.60;4.72;;;;;;;;;;5076171;28;20052;-78
2022/06/04 00:18:03;;;;;;;10.68;4.70;;;;;;;;;;5077193;28;20037;-78
2022/06/04 00:20:29;;;;;;;10.98;5.25;;;;;;;;;;5076686;28;20020;-77
2022/06/04 00:22:59;;;;;;;12.27;5.30;;;;;;;;;;5075446;28;20017;-77
2022/06/04 00:25:25;;;;;;;7.82;4.50;;;;;;;;;;5058228;28;20112;-76
2022/06/04 00:27:51;;;;;;;11.00;4.93;;;;;;;;;;5063078;28;20025;-74
2022/06/04 00:30:17;;;;;;;10.02;4.90;;;;;;;;;;5066952;28;20035;-77
2022/06/04 00:32:43;;;;;;;8.18;4.90;;;;;;;;;;5051792;28;20037;-77
2022/06/04 00:35:09;;;;;;;9.10;4.70;;;;;;;;;;5052083;28;20102;-76
2022/06/04 00:37:36;;;;;;;14.88;5.40;;;;;;;;;;5052090;28;20037;-76
2022/06/04 00:40:03;;;;;;;9.35;4.55;;;;;;;;;;5052013;28;20025;-76
2022/06/04 00:42:29;;;;;;;11.70;5.50;;;;;;;;;;5051856;28;20029;-77
2022/06/04 00:45:14;;;;;;;10.10;4.90;;;;;;;;;;5050969;28;20032;-76
2022/06/04 00:47:41;;;;;;;14.98;5.18;;;;;;;;;;5051340;28;20044;-75
2022/06/04 00:50:08;;;;;;;10.13;4.85;;;;;;;;;;5052205;28;20355;-75
2022/06/04 00:52:34;;;;;;;9.95;5.47;;;;;;;;;;5054934;28;20021;-74
2022/06/04 00:55:00;;;;;;;11.70;5.10;;;;;;;;;;5055238;28;20032;-77
2022/06/04 00:57:29;;;;;;;9.98;5.32;;;;;;;;;;5054026;28;20035;-76
2022/06/04 01:00:03;;;;;;;13.75;6.13;;;;;;;;;;5055249;28;20025;-77
2022/06/04 01:02:40;;;;;;;9.20;5.80;;;;;;;;;;5055719;28;20982;-74
2022/06/04 01:05:06;;;;;;;14.82;6.13;;;;;;;;;;5055165;28;20398;-75
2022/06/04 01:07:32;;;;;;;10.07;5.43;;;;;;;;;;5054701;28;20021;-74
2022/06/04 01:10:07;;;;;;;12.45;5.93;;;;;;;;;;5054797;28;20025;-75
2022/06/04 01:12:38;;;;;;;13.07;6.03;;;;;;;;;;5054673;28;20018;-74
2022/06/04 01:15:27;;;;;;;9.63;5.63;;;;;;;;;;5054919;28;20028;-76
2022/06/04 01:17:58;;;;;;;8.95;6.07;;;;;;;;;;5053773;28;20124;-76
2022/06/04 01:20:24;;;;;;;14.23;6.63;;;;;;;;;;5054806;28;20025;-75
2022/06/04 01:26:03;;;;;;;9.63;6.32;;;;;;;;;;5054267;28;20059;-76
2022/06/04 01:28:31;;;;;;;11.63;6.72;;;;;;;;;;5055008;28;20074;-76
2022/06/04 01:30:58;;;;;;;10.10;6.72;;;;;;;;;;5054730;28;20097;-75
2022/06/04 01:33:25;;;;;;;14.90;6.53;;;;;;;;;;5056240;28;20382;-75
2022/06/04 01:36:00;;;;;;;11.30;6.30;;;;;;;;;;5060662;28;20025;-75
2022/06/04 01:38:34;;;;;;;11.90;7.05;;;;;;;;;;5054270;28;20032;-75
2022/06/04 01:41:22;;;;;;;11.77;7.13;;;;;;;;;;5054317;28;20021;-75
2022/06/04 01:43:50;;;;;;;11.93;7.13;;;;;;;;;;5053695;28;20032;-74
2022/06/04 01:46:22;;;;;;;11.70;6.80;;;;;;;;;;5052521;28;20021;-75
2022/06/04 01:48:51;;;;;;;14.55;7.60;;;;;;;;;;5054506;28;20455;-75
2022/06/04 01:51:20;;;;;;;10.57;7.32;;;;;;;;;;5052901;28;20040;-75
2022/06/04 01:53:47;;;;;;;9.65;6.55;;;;;;;;;;5054270;28;20025;-75
2022/06/04 01:56:16;;;;;;;12.60;7.72;;;;;;;;;;5053905;28;20017;-76
2022/06/04 01:58:48;;;;;;;15.73;7.78;;;;;;;;;;5053884;28;20021;-75
2022/06/04 02:01:17;;;;;;;12.82;7.22;;;;;;;;;;5053874;28;20490;-74
2022/06/04 02:03:50;;;;;;;19.48;8.45;;;;;;;;;;5053759;28;20044;-75
2022/06/04 02:06:19;;;;;;;14.75;7.97;;;;;;;;;;5052470;28;20041;-75
2022/06/04 02:08:54;;;;;;;14.55;7.85;;;;;;;;;;5054708;28;20032;-76
2022/06/04 02:11:21;;;;;;;16.90;8.05;;;;;;;;;;5055466;28;20086;-75
2022/06/04 02:13:48;;;;;;;14.63;8.00;;;;;;;;;;5056087;28;20476;-75
2022/06/04 02:16:20;;;;;;;11.45;7.20;;;;;;;;;;5056900;28;20028;-76
2022/06/04 02:18:47;;;;;;;16.85;8.25;;;;;;;;;;5054389;28;20048;-75
2022/06/04 02:21:15;;;;;;;14.88;8.32;;;;;;;;;;5053915;28;20031;-76
2022/06/04 02:23:43;;;;;;;16.10;8.30;;;;;;;;;;5053930;28;20123;-76
2022/06/04 02:26:09;;;;;;;13.40;7.78;;;;;;;;;;5054027;28;20041;-74
2022/06/04 02:28:36;;;;;;;16.02;7.53;;;;;;;;;;5058633;28;20036;-76
2022/06/04 02:31:20;;;;;;;19.02;8.43;;;;;;;;;;5058958;28;20020;-76
2022/06/04 02:33:52;;;;;;;18.55;8.38;;;;;;;;;;5055096;28;20032;-82
2022/06/04 02:36:24;;;;;;;16.60;7.90;;;;;;;;;;5053453;28;20021;-78
2022/06/04 02:39:02;;;;;;;15.95;8.13;;;;;;;;;;5053626;28;20036;-76
2022/06/04 02:41:30;;;;;;;17.90;8.63;;;;;;;;;;5053223;28;20037;-76
2022/06/04 02:44:01;;;;;;;20.98;8.48;;;;;;;;;;5070972;22;20065;-76
2022/06/04 02:46:40;;;;;;;17.73;8.00;;;;;;;;;;5047374;28;20037;-74
2022/06/04 02:49:09;;;;;;;16.60;8.50;;;;;;;;;;5046969;28;20081;-75
2022/06/04 02:51:40;;;;;;;18.48;9.10;;;;;;;;;;5048415;28;20056;-74
2022/06/04 02:54:10;;;;;;;20.02;9.20;;;;;;;;;;5051326;28;20037;-74
2022/06/04 02:56:38;;;;;;;12.63;8.32;;;;;;;;;;5043379;28;20026;-74
2022/06/04 02:59:05;;;;;;;19.20;9.07;;;;;;;;;;5037655;28;20022;-75
2022/06/04 03:01:33;;;;;;;14.60;8.05;;;;;;;;;;5032053;28;20108;-75
2022/06/04 03:03:59;;;;;;;16.90;8.65;;;;;;;;;;5032693;28;20379;-76
2022/06/04 03:06:27;;;;;;;17.10;9.23;;;;;;;;;;5031253;28;20068;-75
2022/06/04 03:08:53;;;;;;;16.77;8.30;;;;;;;;;;5033654;28;20433;-78
2022/06/04 03:11:20;;;;;;;21.55;10.00;;;;;;;;;;5031562;28;20029;-76
2022/06/04 03:13:46;;;;;;;20.92;9.80;;;;;;;;;;5031854;28;20083;-75
2022/06/04 03:16:13;;;;;;;21.67;9.85;;;;;;;;;;5032371;28;20034;-75
2022/06/04 03:18:39;;;;;;;17.52;9.52;;;;;;;;;;5032380;28;20280;-75
2022/06/04 03:21:05;;;;;;;22.55;9.98;;;;;;;;;;5032313;28;20029;-75
2022/06/04 03:23:31;;;;;;;16.42;8.82;;;;;;;;;;5032173;28;20025;-75
2022/06/04 03:25:57;;;;;;;20.77;9.60;;;;;;;;;;5032221;28;20021;-74
2022/06/04 03:28:23;;;;;;;18.13;9.20;;;;;;;;;;5032013;28;20030;-75
2022/06/04 03:30:49;;;;;;;21.98;9.80;;;;;;;;;;5032132;28;20251;-74
2022/06/04 03:33:16;;;;;;;20.48;10.05;;;;;;;;;;5031360;28;20150;-75
2022/06/04 03:35:42;;;;;;;17.38;10.23;;;;;;;;;;5031988;28;20036;-75
2022/06/04 03:38:08;;;;;;;18.88;9.52;;;;;;;;;;5032301;28;20025;-75
2022/06/04 03:40:34;;;;;;;18.02;9.85;;;;;;;;;;5030809;28;20119;-75
2022/06/04 03:43:00;;;;;;;21.35;10.25;;;;;;;;;;5031988;28;20518;-74
2022/06/04 03:45:26;;;;;;;22.83;10.77;;;;;;;;;;5036676;28;20029;-74
2022/06/04 03:47:53;;;;;;;22.67;10.10;;;;;;;;;;5038164;28;20125;-76
2022/06/04 03:50:19;;;;;;;22.02;10.75;;;;;;;;;;5032417;28;20087;-75
2022/06/04 03:52:46;;;;;;;22.52;10.80;;;;;;;;;;5031952;28;20033;-75
2022/06/04 03:55:13;;;;;;;21.17;10.75;;;;;;;;;;5031965;28;20025;-75
2022/06/04 03:57:41;;;;;;;22.02;11.45;;;;;;;;;;5032366;28;20029;-76
2022/06/04 04:00:27;;;;;;;19.17;10.80;;;;;;;;;;5031916;28;20025;-75
2022/06/04 04:02:57;;;;;;;23.48;12.23;;;;;;;;;;5032550;28;20478;-75
2022/06/04 04:05:25;;;;;;;19.77;11.90;;;;;;;;;;5032254;28;20045;-74
2022/06/04 04:07:51;;;;;;;21.15;11.77;;;;;;;;;;5031862;28;20443;-75
2022/06/04 04:10:18;;;;;;;24.60;13.10;;;;;;;;;;5032056;28;20029;-75
2022/06/04 04:12:44;;;;;;;26.27;12.27;;;;;;;;;;5031990;28;20494;-76
2022/06/04 04:15:11;;;;;;;21.95;11.68;;;;;;;;;;5031817;28;20155;-75
2022/06/04 04:17:39;;;;;;;21.25;11.48;;;;;;;;;;5031619;28;20033;-75
2022/06/04 04:20:06;;;;;;;23.40;12.80;;;;;;;;;;5032081;28;20111;-76
2022/06/04 04:22:32;;;;;;;21.83;12.18;;;;;;;;;;5033058;28;20565;-75
2022/06/04 04:24:58;;;;;;;21.90;12.52;;;;;;;;;;5033279;28;20101;-74
2022/06/04 04:27:24;;;;;;;24.38;12.27;;;;;;;;;;5034577;28;20017;-75
2022/06/04 04:29:50;;;;;;;28.83;13.10;;;;;;;;;;5035720;28;20385;-74
2022/06/04 04:32:16;;;;;;;25.88;13.00;;;;;;;;;;5035594;28;20018;-74
2022/06/04 04:34:42;;;;;;;23.45;12.48;;;;;;;;;;5035469;28;20427;-74
2022/06/04 04:37:08;;;;;;;24.65;13.15;;;;;;;;;;5035206;28;20029;-75
2022/06/04 04:39:34;;;;;;;23.52;13.02;;;;;;;;;;5035436;28;20025;-74
2022/06/04 04:42:00;;;;;;;29.95;13.23;;;;;;;;;;5035768;28;20056;-74
2022/06/04 04:44:26;;;;;;;23.40;12.80;;;;;;;;;;5035092;28;20485;-75
2022/06/04 04:46:52;;;;;;;29.42;13.52;;;;;;;;;;5035222;28;20551;-74
2022/06/04 04:49:18;;;;;;;24.17;12.10;;;;;;;;;;5034659;28;20101;-76
2022/06/04 04:51:44;;;;;;;25.70;12.63;;;;;;;;;;5035468;28;20025;-75
2022/06/04 04:54:11;;;;;;;24.63;12.40;;;;;;;;;;5035845;28;20029;-75
2022/06/04 04:56:39;;;;;;;24.40;13.02;;;;;;;;;;5034858;28;20025;-75
2022/06/04 04:59:05;;;;;;;23.00;13.27;;;;;;;;;;5035261;28;20036;-75
2022/06/04 05:01:31;;;;;;;27.02;12.70;;;;;;;;;;5035826;28;20108;-75
2022/06/04 05:03:57;;;;;;;25.95;12.80;;;;;;;;;;5035183;28;20100;-75
2022/06/04 05:06:23;;;;;;;24.88;13.65;;;;;;;;;;5035109;28;20379;-75
2022/06/04 05:08:52;;;;;;;23.92;13.80;;;;;;;;;;5033527;28;20109;-75
2022/06/04 05:11:24;;;;;;;22.70;12.95;;;;;;;;;;5034765;28;20072;-75
2022/06/04 05:13:50;;;;;;;27.35;12.50;;;;;;;;;;5035024;28;20083;-76
2022/06/04 05:16:24;;;;;;;22.73;13.00;;;;;;;;;;5033331;28;20549;-75
2022/06/04 05:18:50;;;;;;;25.67;13.32;;;;;;;;;;5034795;28;20025;-75
2022/06/04 05:21:24;;;;;;;23.83;12.77;;;;;;;;;;5035682;28;20116;-74
2022/06/04 05:23:51;;;;;;;26.52;13.07;;;;;;;;;;5035042;28;20025;-75
2022/06/04 05:26:17;;;;;;;22.30;12.40;;;;;;;;;;5033410;28;20026;-75
2022/06/04 05:28:43;;;;;;;28.40;14.02;;;;;;;;;;5035431;28;20382;-76
2022/06/04 05:31:09;;;;;;;20.98;12.70;;;;;;;;;;5035761;28;20025;-75
2022/06/04 05:33:35;;;;;;;25.08;12.80;;;;;;;;;;5036774;28;20475;-75
2022/06/04 05:36:02;;;;;;;22.40;12.38;;;;;;;;;;5044798;28;20041;-74
2022/06/04 05:38:29;;;;;;;27.05;11.98;;;;;;;;;;5046648;28;20033;-73
2022/06/04 05:40:59;;;;;;;23.10;12.07;;;;;;;;;;5046293;28;20025;-75
2022/06/04 05:43:25;;;;;;;22.17;12.18;;;;;;;;;;5048139;28;20075;-76
2022/06/04 05:46:01;;;;;;;19.88;12.20;;;;;;;;;;5048427;28;20029;-74
2022/06/04 05:48:28;;;;;;;23.58;12.48;;;;;;;;;;5048636;28;20013;-75
2022/06/04 05:50:55;;;;;;;20.92;11.80;;;;;;;;;;5051224;28;20026;-74
2022/06/04 05:53:21;;;;;;;26.67;12.02;;;;;;;;;;5053356;28;20086;-74
2022/06/04 05:55:48;;;;;;;21.02;11.25;;;;;;;;;;5049226;28;20029;-75
2022/06/04 05:58:13;;;;;;;23.63;12.35;;;;;;;;;;5046963;28;20026;-75
2022/06/04 06:00:40;;;;;;;20.30;11.85;;;;;;;;;;5046679;28;20077;-73
2022/06/04 06:03:06;;;;;;;22.55;10.80;;;;;;;;;;5047195;28;20022;-75
2022/06/04 06:05:32;;;;;;;17.35;9.93;;;;;;;;;;5034527;28;20053;-74
2022/06/04 06:07:58;;;;;;;22.85;11.23;;;;;;;;;;5033040;28;20075;-73
2022/06/04 06:10:24;;;;;;;22.00;10.40;;;;;;;;;;5042795;28;20034;-76
2022/06/04 06:12:50;;;;;;;15.95;10.55;;;;;;;;;;5045055;28;20064;-75
2022/06/04 06:15:16;;;;;;;19.35;9.68;;;;;;;;;;5033888;28;20036;-74
2022/06/04 06:17:42;;;;;;;24.60;10.63;;;;;;;;;;5035247;28;20094;-76
2022/06/04 06:20:08;;;;;;;15.10;8.85;;;;;;;;;;5042656;28;20096;-74
2022/06/04 06:22:35;;;;;;;18.50;9.27;;;;;;;;;;5043944;28;20446;-75
2022/06/04 06:25:05;;;;;;;21.38;9.95;;;;;;;;;;5034266;28;20676;-75
2022/06/04 06:27:31;;;;;;;18.70;10.52;;;;;;;;;;5038838;28;20017;-74
2022/06/04 06:29:57;;;;;;;25.58;10.52;;;;;;;;;;5033023;28;20021;-77
2022/06/04 06:32:24;;;;;;;23.10;9.63;;;;;;;;;;5032711;28;20363;-76
2022/06/04 06:34:50;;;;;;;20.38;10.07;;;;;;;;;;5033784;28;20025;-73
2022/06/04 06:37:16;;;;;;;21.33;9.75;;;;;;;;;;5033647;28;20104;-75
2022/06/04 06:39:42;;;;;;;20.65;9.57;;;;;;;;;;5033655;28;20029;-75
2022/06/04 06:42:08;;;;;;;20.42;8.20;;;;;;;;;;5039147;28;20094;-75
2022/06/04 06:44:34;;;;;;;17.10;8.55;;;;;;;;;;5041370;28;20072;-75
2022/06/04 06:47:00;;;;;;;19.02;8.55;;;;;;;;;;5034634;28;20047;-75
2022/06/04 06:49:27;;;;;;;24.20;9.98;;;;;;;;;;5032400;28;20467;-75
2022/06/04 06:51:55;;;;;;;20.25;9.05;;;;;;;;;;5033805;28;20051;-75
2022/06/04 06:54:22;;;;;;;16.27;8.55;;;;;;;;;;5034448;28;20048;-76
2022/06/04 06:56:50;;;;;;;19.55;9.63;;;;;;;;;;5033747;28;20026;-76
2022/06/04 06:59:16;;;;;;;23.55;8.75;;;;;;;;;;5033961;28;20029;-75
2022/06/04 07:01:43;;;;;;;19.77;8.15;;;;;;;;;;5033663;28;20021;-75
2022/06/04 07:04:09;;;;;;;15.93;7.88;;;;;;;;;;5033771;28;20247;-77
2022/06/04 07:06:38;;;;;;;19.60;8.13;;;;;;;;;;5033084;28;20021;-75
2022/06/04 07:09:06;;;;;;;22.27;9.38;;;;;;;;;;5032069;28;20029;-75
2022/06/04 07:11:32;;;;;;;17.48;8.30;;;;;;;;;;5032350;28;20053;-76
2022/06/04 07:13:58;;;;;;;18.15;8.90;;;;;;;;;;5033579;28;20029;-76
2022/06/04 07:16:24;;;;;;;19.98;9.57;;;;;;;;;;5032914;28;20025;-76
2022/06/04 07:18:50;;;;;;;19.95;8.65;;;;;;;;;;5033069;28;20025;-75
2022/06/04 07:21:16;;;;;;;20.83;10.10;;;;;;;;;;5033157;28;20132;-76
2022/06/04 07:23:42;;;;;;;14.05;8.55;;;;;;;;;;5032627;28;20030;-76
2022/06/04 07:26:08;;;;;;;18.80;9.40;;;;;;;;;;5031987;28;20026;-75
2022/06/04 07:28:37;;;;;;;14.32;8.18;;;;;;;;;;5032119;28;20056;-76
2022/06/04 07:31:03;;;;;;;18.20;9.05;;;;;;;;;;5032591;28;20374;-76
2022/06/04 07:33:29;;;;;;;16.75;8.38;;;;;;;;;;5032811;28;20411;-77
2022/06/04 07:35:55;;;;;;;16.27;7.80;;;;;;;;;;5033131;28;20045;-79
2022/06/04 07:38:21;;;;;;;18.17;8.52;;;;;;;;;;5032116;28;20025;-77
2022/06/04 07:40:47;;;;;;;16.98;8.18;;;;;;;;;;5033034;28;20036;-76
2022/06/04 07:43:13;;;;;;;16.25;8.27;;;;;;;;;;5032470;28;20049;-76
2022/06/04 07:45:39;;;;;;;20.80;8.25;;;;;;;;;;5031760;28;20164;-75
2022/06/04 07:48:06;;;;;;;17.13;7.43;;;;;;;;;;5032660;28;20091;-76
2022/06/04 07:50:33;;;;;;;17.48;7.28;;;;;;;;;;5031466;28;20391;-76
2022/06/04 07:52:59;;;;;;;18.48;9.73;;;;;;;;;;5032164;28;20025;-75
2022/06/04 07:55:26;;;;;;;12.70;7.38;;;;;;;;;;5032815;28;20039;-75
2022/06/04 07:57:52;;;;;;;20.13;7.32;;;;;;;;;;5033354;28;20494;-75
2022/06/04 08:00:23;;;;;;;12.07;7.53;;;;;;;;;;5037425;28;20114;-76
2022/06/04 08:02:50;;;;;;;17.83;7.40;;;;;;;;;;5037169;28;20083;-75
2022/06/04 08:05:17;;;;;;;17.30;7.15;;;;;;;;;;5037568;28;20018;-76
2022/06/04 08:07:43;;;;;;;14.07;6.55;;;;;;;;;;5038887;28;20029;-77
2022/06/04 08:10:09;;;;;;;13.07;5.95;;;;;;;;;;5040215;28;20021;-76
2022/06/04 08:12:40;;;;;;;12.65;5.93;;;;;;;;;;5039452;28;20057;-77
2022/06/04 08:15:07;;;;;;;15.75;6.60;;;;;;;;;;5036928;28;20379;-77
2022/06/04 08:17:33;;;;;;;10.43;6.07;;;;;;;;;;5039083;28;20048;-77
2022/06/04 08:19:59;;;;;;;16.58;6.55;;;;;;;;;;5044361;28;20018;-78
2022/06/04 08:22:26;;;;;;;16.15;6.38;;;;;;;;;;5059003;28;20048;-76
2022/06/04 08:24:52;;;;;;;14.82;6.97;;;;;;;;;;5059256;28;20018;-78
2022/06/04 08:27:18;;;;;;;17.60;6.70;;;;;;;;;;5059401;28;20021;-75
2022/06/04 08:29:44;;;;;;;12.95;5.93;;;;;;;;;;5060798;28;20097;-75
2022/06/04 08:32:10;;;;;;;13.82;6.22;;;;;;;;;;5060631;28;20030;-76
2022/06/04 08:34:36;;;;;;;13.48;6.28;;;;;;;;;;5047446;28;20040;-77
2022/06/04 08:37:04;;;;;;;13.27;6.28;;;;;;;;;;5037944;28;20036;-78
2022/06/04 08:39:30;;;;;;;14.85;6.80;;;;;;;;;;5037306;28;20034;-77
2022/06/04 08:42:11;;;;;;;11.35;6.07;;;;;;;;;;5038447;28;20029;-76
2022/06/04 08:44:48;;;;;;;10.10;5.63;;;;;;;;;;5057965;22;20096;-76
2022/06/04 08:47:19;;;;;;;9.95;5.38;;;;;;;;;;5040128;28;20045;-78
2022/06/04 08:49:46;;;;;;;8.18;5.10;;;;;;;;;;5055667;28;20045;-75
2022/06/04 08:52:14;;;;;;;10.35;5.63;;;;;;;;;;5059898;28;20010;-76
2022/06/04 08:57:34;;;;;;;11.80;6.28;;;;;;;;;;5058352;28;20045;-76
2022/06/04 09:00:18;;;;;;;12.30;6.40;;;;;;;;;;5040826;28;20458;-77
2022/06/04 09:02:57;;;;;;;12.40;6.43;;;;;;;;;;5037210;28;20033;-74
2022/06/04 09:05:38;;;;;;;16.15;5.72;;;;;;;;;;5036425;28;20043;-75
2022/06/04 09:08:11;;;;;;;10.30;6.00;;;;;;;;;;5035925;28;20022;-75
2022/06/04 09:10:40;;;;;;;10.57;6.70;;;;;;;;;;5035833;28;20049;-75
2022/06/04 09:13:26;;;;;;;11.82;6.53;;;;;;;;;;5036029;28;20425;-75
2022/06/04 09:15:54;;;;;;;14.93;6.50;;;;;;;;;;5038131;28;20080;-76
2022/06/04 09:18:25;;;;;;;10.82;5.38;;;;;;;;;;5037406;28;20493;-76
2022/06/04 09:20:56;;;;;;;10.63;5.15;;;;;;;;;;5046995;28;20029;-75
2022/06/04 09:23:34;;;;;;;10.50;5.60;;;;;;;;;;5053750;28;20029;-76
2022/06/04 09:26:06;;;;;;;11.07;5.90;;;;;;;;;;5040994;28;20033;-75
2022/06/04 09:28:40;;;;;;;12.20;5.03;;;;;;;;;;5041680;28;20037;-75
2022/06/04 09:31:16;;;;;;;8.25;5.15;;;;;;;;;;5041781;28;20021;-74
2022/06/04 09:34:08;;;;;;;11.80;5.05;;;;;;;;;;5038954;28;20093;-75
2022/06/04 09:36:35;;;;;;;9.98;4.53;;;;;;;;;;5032835;28;20100;-76
2022/06/04 09:39:03;;;;;;;9.10;5.07;;;;;;;;;;5036169;28;20056;-75
2022/06/04 09:41:31;;;;;;;11.30;6.00;;;;;;;;;;5036178;28;20501;-75
2022/06/04 09:44:02;;;;;;;10.98;5.20;;;;;;;;;;5046476;28;20040;-75
2022/06/04 09:46:28;;;;;;;10.50;5.70;;;;;;;;;;5043388;28;20474;-75
2022/06/04 09:48:55;;;;;;;8.18;5.03;;;;;;;;;;5044180;28;20040;-76
2022/06/04 09:51:23;;;;;;;9.70;5.15;;;;;;;;;;5042865;28;20110;-75
2022/06/04 09:53:50;;;;;;;8.55;4.40;;;;;;;;;;5046606;28;20036;-76
2022/06/04 09:56:25;;;;;;;11.68;4.50;;;;;;;;;;5043081;28;20087;-75
2022/06/04 09:58:51;;;;;;;10.02;4.70;;;;;;;;;;5036764;28;20030;-76
2022/06/04 10:01:17;;;;;;;19.33;5.85;;;;;;;;;;5036196;28;20090;-76
2022/06/04 10:03:45;;;;;;;12.77;5.40;;;;;;;;;;5035151;28;20557;-77
2022/06/04 10:06:15;;;;;;;17.85;7.63;;;;;;;;;;5034469;28;20037;-76
2022/06/04 10:11:37;;;;;;;8.45;4.97;;;;;;;;;;5036424;28;20056;-77
2022/06/04 10:14:03;;;;;;;7.78;4.68;;;;;;;;;;5036499;28;20033;-76
2022/06/04 10:16:37;;;;;;;8.70;4.45;;;;;;;;;;5033981;28;20163;-75
2022/06/04 10:19:14;;;;;;;10.55;4.72;;;;;;;;;;5034933;28;20317;-75
2022/06/04 10:21:41;;;;;;;16.38;5.97;;;;;;;;;;5036505;28;20037;-77
2022/06/04 10:24:27;;;;;;;7.72;4.72;;;;;;;;;;5038963;28;20023;-79
2022/06/04 10:26:58;;;;;;;18.23;7.68;;;;;;;;;;5039884;28;20018;-76
2022/06/04 10:29:54;;;;;;;8.82;5.13;;;;;;;;;;5038420;28;20474;-75
2022/06/04 10:32:26;;;;;;;6.78;4.10;;;;;;;;;;5021445;28;20036;-76
2022/06/04 10:34:52;;;;;;;9.55;3.97;;;;;;;;;;5032939;28;20017;-76
2022/06/04 10:37:37;;;;;;;11.15;4.93;;;;;;;;;;5032959;28;20322;-77
2022/06/04 10:40:22;;;;;;;10.23;4.68;;;;;;;;;;5034346;28;20034;-75
2022/06/04 10:42:57;;;;;;;9.35;4.43;;;;;;;;;;5031942;28;20044;-75
2022/06/04 10:45:43;;;;;;;6.85;4.38;;;;;;;;;;5033084;28;20032;-76
2022/06/04 10:48:19;;;;;;;10.10;4.90;;;;;;;;;;5040261;28;20493;-76
2022/06/04 10:53:40;;;;;;;11.90;5.35;;;;;;;;;;5033624;28;20558;-76
2022/06/04 10:56:08;;;;;;;10.82;4.80;;;;;;;;;;5034121;28;20048;-78
2022/06/04 10:58:41;;;;;;;8.07;4.80;;;;;;;;;;5032397;28;20021;-77
2022/06/04 11:01:14;;;;;;;7.32;4.20;;;;;;;;;;5033364;28;20033;-76
2022/06/04 11:03:46;;;;;;;8.67;3.97;;;;;;;;;;5031299;28;20049;-76
2022/06/04 11:06:14;;;;;;;6.55;4.07;;;;;;;;;;5030964;28;20105;-76
2022/06/04 11:08:51;;;;;;;8.73;5.47;;;;;;;;;;5030708;28;20029;-75
2022/06/04 11:11:27;;;;;;;9.07;4.53;;;;;;;;;;5031508;28;20028;-76
2022/06/04 11:14:00;;;;;;;7.72;4.00;;;;;;;;;;5032463;28;20021;-76
2022/06/04 11:16:29;;;;;;;7.75;4.28;;;;;;;;;;5032977;28;20025;-75
2022/06/04 11:18:57;;;;;;;7.05;3.67;;;;;;;;;;5031984;28;20031;-75
2022/06/04 11:21:42;;;;;;;6.25;3.95;;;;;;;;;;5031598;28;20029;-76
2022/06/04 11:24:08;;;;;;;;;;;;;;;;;;5032847;28;20022;-74
2022/06/04 11:26:46;;;;;;;10.77;4.45;;;;;;;;;;5034190;28;19915;-76
2022/06/04 11:29:14;;;;;;;9.00;5.30;;;;;;;;;;5031013;28;20026;-76
2022/06/04 11:31:49;;;;;;;10.95;5.93;;;;;;;;;;5029937;28;20022;-75
2022/06/04 11:34:14;;;;;;;6.88;3.90;;;;;;;;;;5033549;28;20100;-74
2022/06/04 11:36:47;;;;;;;5.60;3.70;;;;;;;;;;5032651;28;20500;-76
2022/06/04 11:39:25;;;;;;;9.00;4.75;;;;;;;;;;5033734;28;20056;-77
2022/06/04 11:41:51;;;;;;;6.55;4.15;;;;;;;;;;5033217;28;20041;-76
2022/06/04 11:44:37;;;;;;;7.53;4.28;;;;;;;;;;5031918;28;20160;-76
2022/06/04 11:47:15;;;;;;;6.93;3.88;;;;;;;;;;5032427;28;20022;-76
2022/06/04 11:50:00;;;;;;;8.88;3.88;;;;;;;;;;5032582;28;20039;-75
2022/06/04 11:52:26;;;;;;;9.38;4.07;;;;;;;;;;5032381;28;20060;-75
2022/06/04 11:54:55;;;;;;;5.63;3.50;;;;;;;;;;5032765;28;20021;-74
2022/06/04 11:57:40;;;;;;;6.32;3.60;;;;;;;;;;5031598;28;20103;-76
2022/06/04 12:00:06;;;;;;;;;;;;;;;;;;5034988;28;20037;-75
2022/06/04 12:02:37;;;;;;;8.05;4.35;;;;;;;;;;5033175;28;19905;-75
2022/06/04 12:05:09;;;;;;;7.43;3.80;;;;;;;;;;5032609;28;20053;-75
2022/06/04 12:07:40;;;;;;;5.25;3.40;;;;;;;;;;5032392;28;20088;-76
2022/06/04 12:10:06;;;;;;;7.68;4.65;;;;;;;;;;5033672;28;20057;-75
2022/06/04 12:12:35;;;;;;;9.73;3.53;;;;;;;;;;5034672;28;20037;-76
2022/06/04 12:15:17;;;;;;;9.32;4.78;;;;;;;;;;5033046;28;20037;-77
2022/06/04 12:18:05;;;;;;;9.68;3.40;;;;;;;;;;5032517;28;20029;-75
2022/06/04 12:26:22;;;;;;;5.85;3.42;;;;;;;;;;5034997;28;20113;-76
2022/06/04 12:28:48;;;;;;;9.10;4.65;;;;;;;;;;5035022;28;20026;-75
2022/06/04 12:31:24;;;;;;;6.57;3.90;;;;;;;;;;5033001;28;20021;-76
2022/06/04 12:33:52;;;;;;;13.40;6.50;;;;;;;;;;5032047;28;20109;-75
2022/06/04 12:36:28;;;;;;;13.57;6.65;;;;;;;;;;5030353;28;20033;-76
2022/06/04 12:39:20;;;;;;;8.15;3.95;;;;;;;;;;5032691;28;20493;-75
2022/06/04 12:41:49;;;;;;;7.35;3.38;;;;;;;;;;5033036;28;20061;-75
2022/06/04 12:44:19;;;;;;;9.40;5.78;;;;;;;;;;5034674;28;20112;-76
2022/06/04 12:46:46;;;;;;;7.28;4.43;;;;;;;;;;5035069;28;20021;-75
2022/06/04 12:49:35;;;;;;;8.50;3.42;;;;;;;;;;5039107;28;20025;-76
2022/06/04 12:52:19;;;;;;;5.78;3.65;;;;;;;;;;5040437;28;20081;-77
2022/06/04 12:55:17;;;;;;;7.40;4.05;;;;;;;;;;5037619;28;20030;-76
2022/06/04 12:57:51;;;;;;;6.88;3.72;;;;;;;;;;4993161;28;20048;-75
2022/06/04 13:00:18;;;;;;;7.40;3.40;;;;;;;;;;5036363;28;20033;-76
2022/06/04 13:02:55;;;;;;;9.13;3.22;;;;;;;;;;5035769;28;20112;-75
2022/06/04 13:05:22;;;;;;;8.13;3.60;;;;;;;;;;5036061;28;20470;-75
2022/06/04 13:07:48;;;;;;;6.13;3.00;;;;;;;;;;5052890;28;20097;-75
2022/06/04 13:10:20;;;;;;;6.88;4.30;;;;;;;;;;5050931;28;20033;-75
2022/06/04 13:13:12;;;;;;;7.90;3.35;;;;;;;;;;5035608;28;20478;-76
2022/06/04 13:15:52;;;;;;;13.93;7.05;;;;;;;;;;5026131;28;20341;-75
2022/06/04 13:18:23;;;;;;;5.70;3.50;;;;;;;;;;5035258;28;20084;-76
2022/06/04 13:20:57;;;;;;;5.05;2.90;;;;;;;;;;5036077;28;20478;-75
2022/06/04 13:23:33;;;;;;;6.72;3.25;;;;;;;;;;5036664;28;20087;-75
2022/06/04 13:26:17;;;;;;;6.40;3.53;;;;;;;;;;5038044;28;20099;-74
2022/06/04 13:28:45;;;;;;;5.75;3.25;;;;;;;;;;5038552;28;20033;-75
2022/06/04 13:31:19;;;;;;;8.70;3.38;;;;;;;;;;5039455;28;20022;-75
2022/06/04 13:33:45;;;;;;;6.80;3.38;;;;;;;;;;5037086;28;20021;-74
2022/06/04 13:36:13;;;;;;;6.10;2.85;;;;;;;;;;5035978;28;20025;-75
2022/06/04 13:38:41;;;;;;;7.03;3.22;;;;;;;;;;5034550;28;20053;-75
2022/06/04 13:41:08;;;;;;;7.20;3.40;;;;;;;;;;5034668;28;20112;-76
2022/06/04 13:43:40;;;;;;;5.45;3.15;;;;;;;;;;5032971;28;20513;-77
2022/06/04 13:46:07;;;;;;;7.07;3.42;;;;;;;;;;5033381;28;20037;-77
2022/06/04 13:48:34;;;;;;;6.47;3.28;;;;;;;;;;5035807;28;20075;-76
2022/06/04 13:51:01;;;;;;;6.05;3.00;;;;;;;;;;5034767;28;20017;-76
2022/06/04 13:53:31;;;;;;;6.60;3.90;;;;;;;;;;5034864;28;20422;-75
2022/06/04 13:56:03;;;;;;;16.80;8.25;;;;;;;;;;5034563;28;20055;-74
2022/06/04 13:58:32;;;;;;;9.82;4.10;;;;;;;;;;5034325;28;20430;-76
2022/06/04 14:01:01;;;;;;;5.95;3.38;;;;;;;;;;5034206;28;20064;-75
2022/06/04 14:03:33;;;;;;;6.45;3.45;;;;;;;;;;5034779;28;20025;-76
2022/06/04 14:05:59;;;;;;;8.45;3.40;;;;;;;;;;5034104;28;20488;-76
2022/06/04 14:08:27;;;;;;;5.32;2.80;;;;;;;;;;5034034;28;20483;-76
2022/06/04 14:11:02;;;;;;;3.72;2.70;;;;;;;;;;5038265;28;20032;-75
2022/06/04 14:13:43;;;;;;;5.78;3.20;;;;;;;;;;5036738;28;20028;-75
2022/06/04 14:16:21;;;;;;;4.95;2.75;;;;;;;;;;5035290;28;20036;-76
2022/06/04 14:19:13;;;;;;;6.18;3.00;;;;;;;;;;5035023;28;20026;-75
2022/06/04 14:21:43;;;;;;;6.75;3.33;;;;;;;;;;5034311;28;20025;-76
2022/06/04 14:24:26;;;;;;;8.20;3.78;;;;;;;;;;5034453;28;20378;-75
2022/06/04 14:27:01;;;;;;;9.48;3.40;;;;;;;;;;5037530;28;20014;-75
2022/06/04 14:29:45;;;;;;;6.00;3.08;;;;;;;;;;5035976;28;20037;-76
2022/06/04 14:32:11;;;;;;;5.45;2.88;;;;;;;;;;5034625;28;20100;-76
2022/06/04 14:34:39;;;;;;;7.68;3.65;;;;;;;;;;5032534;28;20033;-76
2022/06/04 14:37:07;;;;;;;4.68;2.90;;;;;;;;;;5034095;28;20022;-74
2022/06/04 14:39:35;;;;;;;5.30;3.17;;;;;;;;;;5033860;28;20021;-74
2022/06/04 14:42:13;;;;;;;5.15;3.20;;;;;;;;;;5033617;28;20017;-75
2022/06/04 14:45:05;;;;;;;7.75;3.28;;;;;;;;;;5047153;22;20131;-74
2022/06/04 14:47:49;;;;;;;4.72;2.78;;;;;;;;;;5011463;28;20064;-76
2022/06/04 14:50:21;;;;;;;8.43;2.92;;;;;;;;;;5032171;28;20045;-75
2022/06/04 14:52:49;;;;;;;8.43;3.58;;;;;;;;;;5033078;28;20075;-75
2022/06/04 14:55:18;;;;;;;4.95;3.13;;;;;;;;;;5033037;28;20036;-75
2022/06/04 14:57:57;;;;;;;5.85;3.00;;;;;;;;;;5033835;28;20056;-77
2022/06/04 15:00:26;;;;;;;6.40;3.08;;;;;;;;;;5033954;28;20029;-77
2022/06/04 15:03:12;;;;;;;5.35;2.75;;;;;;;;;;5038440;28;20029;-76
2022/06/04 15:05:38;;;;;;;7.70;3.38;;;;;;;;;;5040855;28;20068;-76
2022/06/04 15:08:13;;;;;;;8.65;5.05;;;;;;;;;;5055110;28;20049;-77
2022/06/04 15:11:03;;;;;;;6.78;3.50;;;;;;;;;;5055654;28;20070;-75
2022/06/04 15:13:56;;;;;;;6.55;3.50;;;;;;;;;;5052326;28;20009;-75